Amity, Maine
Current Conditions -  °F | °C
As of 11:53 AM on Saturday 25 Oct 2014 (Local Time) from KHUL Reporting Station
Overcast Overcast  
Wind Chill: 42°   Ceiling: 1000
Heat Index: 44°   Visibility: 10mi
Dew Point: 40°   Wind: 5mph
Humidity: 85%   Direction: 330°NNW
Pressure: 29.6"   Gusts: NA
Location:  45.8952°N, 67.8479°W
Report Text: KHUL 251553Z AUTO 33004KT 10SM BKN010 OVC015 07/04 A2960 RMK AO2 CIG 008V012 SLP027 T00670044
Loading
Personal Weather Stations






























Interactive Weather Map
Tropical Storm Tracking
New forecast layout! Learn more

10-Day Weather Forecast

Advertisements
Track Severe Weather on mobile